createdAt,value
2022-10-15T00:00:20.492Z,100940.03
2022-10-15T00:02:49.242Z,100931.47
2022-10-15T00:05:18.264Z,100932.31
2022-10-15T00:07:49.991Z,100924.22
2022-10-15T00:10:19.021Z,100926.19
2022-10-15T00:12:49.333Z,100913.31
2022-10-15T00:15:20.393Z,100920.66
2022-10-15T00:17:50.382Z,100910.78
2022-10-15T00:20:25.618Z,100914.66
2022-10-15T00:22:56.357Z,100919.31
2022-10-15T00:25:25.040Z,100932.88
2022-10-15T00:27:53.638Z,100917.72
2022-10-15T00:30:24.151Z,100917.31
2022-10-15T00:32:52.948Z,100920.50
2022-10-15T00:35:21.263Z,100919.50
2022-10-15T00:37:54.766Z,100908.75
2022-10-15T00:40:26.769Z,100898.91
2022-10-15T00:42:55.198Z,100894.53
2022-10-15T00:45:25.506Z,100905.56
2022-10-15T00:47:57.994Z,100912.19
2022-10-15T00:50:29.793Z,100906.63
2022-10-15T00:53:05.323Z,100903.94
2022-10-15T00:55:37.165Z,100918.03
2022-10-15T01:00:43.851Z,100906.28
2022-10-15T01:03:13.865Z,100915.88
2022-10-15T01:05:45.079Z,100910.50
2022-10-15T01:08:13.418Z,100910.19
2022-10-15T01:10:57.194Z,100910.50
2022-10-15T01:13:37.221Z,100902.41
2022-10-15T01:16:15.660Z,100907.47
2022-10-15T01:18:54.958Z,100907.91
2022-10-15T01:21:37.899Z,100914.16
2022-10-15T01:24:51.640Z,100895.41
2022-10-15T01:27:40.191Z,100900.34
2022-10-15T01:30:33.386Z,100889.28
2022-10-15T01:33:36.008Z,100889.50
2022-10-15T01:36:19.776Z,100884.31
2022-10-15T01:38:57.233Z,100883.78
2022-10-15T01:41:36.599Z,100885.06
2022-10-15T01:44:10.610Z,100898.19
2022-10-15T01:46:50.601Z,100899.84
2022-10-15T01:49:26.367Z,100894.78
2022-10-15T01:52:00.298Z,100901.56
2022-10-15T01:54:33.316Z,100894.97
2022-10-15T01:57:05.107Z,100899.91
2022-10-15T01:59:38.344Z,100892.38
2022-10-15T02:02:09.991Z,100885.59
2022-10-15T02:04:40.237Z,100883.03
2022-10-15T02:07:14.415Z,100871.75
2022-10-15T02:09:52.964Z,100878.72
2022-10-15T02:12:52.859Z,100877.41
2022-10-15T02:15:35.799Z,100859.88
2022-10-15T02:18:11.998Z,100859.44
2022-10-15T02:20:51.171Z,100858.47
2022-10-15T02:23:23.119Z,100852.00
2022-10-15T02:25:54.019Z,100859.22
2022-10-15T02:28:26.342Z,100855.16
2022-10-15T02:30:58.890Z,100866.22
2022-10-15T02:33:32.111Z,100857.94
2022-10-15T02:36:02.417Z,100859.88
2022-10-15T02:38:34.679Z,100854.81
2022-10-15T02:41:03.671Z,100851.34
2022-10-15T02:43:32.825Z,100856.50
2022-10-15T02:46:03.465Z,100863.41
2022-10-15T02:48:34.366Z,100856.59
2022-10-15T02:51:05.495Z,100859.94
2022-10-15T02:53:35.707Z,100847.50
2022-10-15T02:56:04.870Z,100847.16
2022-10-15T02:58:35.046Z,100844.56
2022-10-15T03:01:03.836Z,100836.19
2022-10-15T03:03:34.164Z,100835.16
2022-10-15T03:06:03.540Z,100828.97
2022-10-15T03:08:33.242Z,100822.53
2022-10-15T03:11:02.958Z,100818.84
2022-10-15T03:13:36.889Z,100819.03
2022-10-15T03:16:07.549Z,100811.63
2022-10-15T03:18:40.830Z,100815.91
2022-10-15T03:21:14.786Z,100802.91
2022-10-15T03:23:43.643Z,100807.66
2022-10-15T03:26:12.788Z,100808.13
2022-10-15T03:28:41.781Z,100800.69
2022-10-15T03:31:13.634Z,100804.38
2022-10-15T03:33:46.681Z,100803.63
2022-10-15T03:36:16.560Z,100802.81
2022-10-15T03:38:45.478Z,100797.16
2022-10-15T03:41:14.035Z,100805.78
2022-10-15T03:43:43.162Z,100795.97
2022-10-15T03:46:12.277Z,100799.88
2022-10-15T03:48:42.629Z,100791.03
2022-10-15T03:51:11.109Z,100792.00
2022-10-15T03:53:40.406Z,100794.50
2022-10-15T03:56:09.341Z,100802.38
2022-10-15T03:58:38.177Z,100795.50
2022-10-15T04:01:11.155Z,100813.16
2022-10-15T04:03:41.364Z,100814.53
2022-10-15T04:06:12.959Z,100815.97
2022-10-15T04:08:42.382Z,100812.72
2022-10-15T04:11:11.358Z,100814.19
2022-10-15T04:13:40.202Z,100806.03
2022-10-15T04:16:11.924Z,100815.22
2022-10-15T04:18:40.382Z,100805.41
2022-10-15T04:21:11.495Z,100818.19
2022-10-15T04:23:40.332Z,100811.44
2022-10-15T04:26:09.055Z,100822.97
2022-10-15T04:28:39.453Z,100832.22
2022-10-15T04:31:08.431Z,100834.16
2022-10-15T04:33:37.793Z,100838.66
2022-10-15T04:36:09.548Z,100848.47
2022-10-15T04:38:39.363Z,100842.97
2022-10-15T04:41:10.109Z,100833.59
2022-10-15T04:43:41.023Z,100834.22
2022-10-15T04:46:14.321Z,100817.28
2022-10-15T04:48:44.026Z,100823.91
2022-10-15T04:51:17.522Z,100823.69
2022-10-15T04:53:48.340Z,100822.59
2022-10-15T04:56:23.949Z,100823.91
2022-10-15T04:58:53.451Z,100820.69
2022-10-15T05:01:23.636Z,100837.16
2022-10-15T05:03:52.514Z,100834.06
2022-10-15T05:06:24.112Z,100844.81
2022-10-15T05:08:54.683Z,100842.41
2022-10-15T05:11:25.465Z,100844.50
2022-10-15T05:13:56.462Z,100851.69
2022-10-15T05:16:29.485Z,100846.06
2022-10-15T05:19:01.115Z,100833.69
2022-10-15T05:21:36.409Z,100831.84
2022-10-15T05:24:08.239Z,100826.25
2022-10-15T05:26:37.200Z,100827.06
2022-10-15T05:29:07.259Z,100822.69
2022-10-15T05:31:36.122Z,100825.56
2022-10-15T05:34:11.580Z,100836.53
2022-10-15T05:36:42.341Z,100826.66
2022-10-15T05:39:14.306Z,100809.97
2022-10-15T05:41:42.724Z,100825.06
2022-10-15T05:44:13.241Z,100813.19
2022-10-15T05:46:42.876Z,100816.63
2022-10-15T05:49:13.496Z,100825.75
2022-10-15T05:51:44.423Z,100817.28
2022-10-15T05:54:14.862Z,100818.69
2022-10-15T05:56:43.322Z,100824.56
2022-10-15T05:59:12.272Z,100822.31
2022-10-15T06:01:42.985Z,100817.91
2022-10-15T06:04:12.455Z,100823.66
2022-10-15T06:06:43.049Z,100823.63
2022-10-15T06:09:13.330Z,100832.13
2022-10-15T06:11:42.343Z,100841.34
2022-10-15T06:14:11.553Z,100830.13
2022-10-15T06:16:41.201Z,100835.50
2022-10-15T06:19:10.421Z,100841.63
2022-10-15T06:21:41.332Z,100832.78
2022-10-15T06:24:10.429Z,100839.16
2022-10-15T06:26:40.867Z,100823.19
2022-10-15T06:29:09.743Z,100826.66
2022-10-15T06:31:38.148Z,100813.41
2022-10-15T06:34:06.524Z,100809.41
2022-10-15T06:36:37.062Z,100807.94
2022-10-15T06:39:05.603Z,100815.84
2022-10-15T06:41:35.340Z,100815.06
2022-10-15T06:44:08.575Z,100821.63
2022-10-15T06:46:38.898Z,100821.31
2022-10-15T06:49:09.577Z,100820.19
2022-10-15T06:51:38.478Z,100820.00
2022-10-15T06:54:07.132Z,100825.94
2022-10-15T06:56:38.580Z,100838.88
2022-10-15T06:59:09.434Z,100833.88
2022-10-15T07:01:41.387Z,100842.59
2022-10-15T07:04:11.802Z,100836.56
2022-10-15T07:06:42.044Z,100840.66
2022-10-15T07:09:10.769Z,100841.47
2022-10-15T07:11:39.460Z,100838.22
2022-10-15T07:14:14.257Z,100843.75
2022-10-15T07:16:43.153Z,100848.72
2022-10-15T07:19:11.906Z,100857.53
2022-10-15T07:21:41.234Z,100836.47
2022-10-15T07:24:09.855Z,100851.44
2022-10-15T07:26:39.088Z,100846.00
2022-10-15T07:29:08.106Z,100850.47
2022-10-15T07:31:40.500Z,100838.88
2022-10-15T07:34:09.583Z,100837.06
2022-10-15T07:36:38.541Z,100840.97
2022-10-15T07:39:09.186Z,100847.94
2022-10-15T07:41:37.853Z,100845.03
2022-10-15T07:44:08.273Z,100844.34
2022-10-15T07:46:39.741Z,100839.38
2022-10-15T07:49:09.502Z,100826.78
2022-10-15T07:51:38.335Z,100834.16
2022-10-15T07:54:07.178Z,100831.22
2022-10-15T07:56:35.922Z,100826.88
2022-10-15T07:59:04.924Z,100815.03
2022-10-15T08:01:35.465Z,100795.88
2022-10-15T08:04:07.596Z,100806.66
2022-10-15T08:06:36.601Z,100818.91
2022-10-15T08:09:07.663Z,100815.47
2022-10-15T08:11:36.016Z,100809.84
2022-10-15T08:14:04.692Z,100817.59
2022-10-15T08:16:34.619Z,100799.41
2022-10-15T08:19:08.165Z,100800.91
2022-10-15T08:21:36.502Z,100784.34
2022-10-15T08:24:06.133Z,100784.81
2022-10-15T08:26:36.678Z,100800.75
2022-10-15T08:29:14.029Z,100797.34
2022-10-15T08:31:42.807Z,100799.38
2022-10-15T08:34:12.653Z,100811.13
2022-10-15T08:36:45.502Z,100811.94
2022-10-15T08:39:14.232Z,100806.41
2022-10-15T08:41:50.138Z,100801.97
2022-10-15T08:44:27.417Z,100790.75
2022-10-15T08:47:00.820Z,100785.41
2022-10-15T08:49:45.724Z,100788.25
2022-10-15T08:52:26.569Z,100780.41
2022-10-15T08:54:58.186Z,100786.81
2022-10-15T08:57:43.278Z,100775.97
2022-10-15T09:00:20.536Z,100771.03
2022-10-15T09:03:03.197Z,100776.94
2022-10-15T09:05:53.390Z,100774.03
2022-10-15T09:08:30.930Z,100776.44
2022-10-15T09:11:04.187Z,100764.72
2022-10-15T09:13:40.856Z,100764.56
2022-10-15T09:16:17.265Z,100767.13
2022-10-15T09:18:52.216Z,100759.28
2022-10-15T09:21:26.355Z,100751.66
2022-10-15T09:24:00.891Z,100742.94
2022-10-15T09:26:51.238Z,100739.69
2022-10-15T09:29:28.507Z,100742.84
2022-10-15T09:32:08.548Z,100741.91
2022-10-15T09:34:44.734Z,100733.25
2022-10-15T09:37:25.901Z,100732.31
2022-10-15T09:40:32.153Z,100714.16
2022-10-15T09:43:05.400Z,100725.28
2022-10-15T09:45:38.036Z,100726.78
2022-10-15T09:48:19.665Z,100720.44
2022-10-15T09:50:58.997Z,100726.16
2022-10-15T09:53:47.035Z,100721.28
2022-10-15T09:56:19.881Z,100717.06
2022-10-15T09:58:54.052Z,100702.66
2022-10-15T10:01:26.996Z,100687.69
2022-10-15T10:04:13.497Z,100681.41
2022-10-15T10:06:47.436Z,100693.66
2022-10-15T10:09:22.690Z,100686.03
2022-10-15T10:11:54.780Z,100698.66
2022-10-15T10:14:32.775Z,100700.59
2022-10-15T10:17:17.793Z,100701.69
2022-10-15T10:20:03.542Z,100706.50
2022-10-15T10:22:32.432Z,100698.19
2022-10-15T10:25:36.439Z,100694.75
2022-10-15T10:28:20.754Z,100702.34
2022-10-15T10:31:04.742Z,100691.38
2022-10-15T10:33:38.673Z,100700.09
2022-10-15T10:36:19.721Z,100687.00
2022-10-15T10:38:59.788Z,100698.84
2022-10-15T10:41:51.391Z,100689.34
2022-10-15T10:44:29.410Z,100696.75
2022-10-15T10:47:20.305Z,100707.25
2022-10-15T10:49:54.385Z,100710.09
2022-10-15T10:52:29.071Z,100707.66
2022-10-15T10:55:03.804Z,100723.00
2022-10-15T10:57:45.322Z,100710.09
2022-10-15T11:00:19.639Z,100706.63
2022-10-15T11:02:49.002Z,100695.84
2022-10-15T11:05:27.832Z,100705.50
2022-10-15T11:08:10.061Z,100703.31
2022-10-15T11:10:47.963Z,100703.72
2022-10-15T11:13:44.548Z,100715.34
2022-10-15T11:16:20.731Z,100710.84
2022-10-15T11:19:13.662Z,100704.97
2022-10-15T11:22:05.642Z,100705.53
2022-10-15T11:24:49.099Z,100702.88
2022-10-15T11:27:54.453Z,100694.75
2022-10-15T11:30:44.705Z,100685.81
2022-10-15T11:33:33.065Z,100692.09
2022-10-15T11:36:23.255Z,100690.44
2022-10-15T11:39:05.030Z,100674.38
2022-10-15T11:41:45.736Z,100672.78
2022-10-15T11:44:39.506Z,100673.31
2022-10-15T11:47:28.612Z,100676.13
2022-10-15T11:50:16.094Z,100672.06
2022-10-15T11:53:03.736Z,100681.91
2022-10-15T11:55:42.347Z,100676.00
2022-10-15T11:58:30.422Z,100669.91
2022-10-15T12:01:06.758Z,100669.53
2022-10-15T12:03:47.142Z,100667.63
2022-10-15T12:06:21.386Z,100679.75
2022-10-15T12:08:51.746Z,100680.91
2022-10-15T12:11:41.725Z,100683.44
2022-10-15T12:14:23.620Z,100679.03
2022-10-15T12:17:04.936Z,100666.63
2022-10-15T12:19:43.130Z,100660.47
2022-10-15T12:22:14.734Z,100668.63
2022-10-15T12:24:57.992Z,100666.06
2022-10-15T12:27:36.216Z,100661.59
2022-10-15T12:30:34.611Z,100668.97
2022-10-15T12:33:05.220Z,100662.31
2022-10-15T12:35:40.478Z,100665.72
2022-10-15T12:38:29.708Z,100664.78
2022-10-15T12:41:06.735Z,100664.56
2022-10-15T12:43:40.520Z,100676.75
2022-10-15T12:46:13.324Z,100674.53
2022-10-15T12:48:45.347Z,100685.97
2022-10-15T12:51:45.900Z,100687.81
2022-10-15T12:54:41.361Z,100672.53
2022-10-15T12:57:54.653Z,100682.28
2022-10-15T13:00:43.775Z,100685.59
2022-10-15T13:03:36.558Z,100681.84
2022-10-15T13:06:36.042Z,100682.28
2022-10-15T13:09:31.659Z,100681.03
2022-10-15T13:12:03.318Z,100681.09
2022-10-15T13:14:47.708Z,100686.06
2022-10-15T13:17:19.569Z,100672.97
2022-10-15T13:19:55.690Z,100664.66
2022-10-15T13:22:29.053Z,100669.09
2022-10-15T13:24:59.411Z,100675.97
2022-10-15T13:27:33.248Z,100661.22
2022-10-15T13:30:05.799Z,100663.56
2022-10-15T13:32:53.377Z,100665.09
2022-10-15T13:35:32.487Z,100661.50
2022-10-15T13:38:04.652Z,100668.16
2022-10-15T13:40:35.035Z,100664.88
2022-10-15T13:43:06.420Z,100672.34
2022-10-15T13:45:37.339Z,100665.72
2022-10-15T13:48:12.926Z,100646.44
2022-10-15T13:50:42.583Z,100641.19
2022-10-15T13:53:19.255Z,100635.75
2022-10-15T13:55:52.284Z,100636.03
2022-10-15T13:58:27.573Z,100646.47
2022-10-15T14:01:01.693Z,100649.56
2022-10-15T14:03:31.941Z,100646.78
2022-10-15T14:06:12.976Z,100653.88
2022-10-15T14:08:41.682Z,100648.16
2022-10-15T14:11:15.671Z,100643.06
2022-10-15T14:13:48.400Z,100650.41
2022-10-15T14:16:22.961Z,100648.53
2022-10-15T14:18:55.057Z,100648.41
2022-10-15T14:21:29.077Z,100634.25
2022-10-15T14:24:07.466Z,100635.25
2022-10-15T14:26:39.243Z,100629.63
2022-10-15T14:29:17.484Z,100638.00
2022-10-15T14:31:50.775Z,100636.06
2022-10-15T14:34:39.954Z,100645.19
2022-10-15T14:37:32.037Z,100629.50
2022-10-15T14:40:19.510Z,100643.34
2022-10-15T14:43:03.687Z,100638.81
2022-10-15T14:45:44.075Z,100639.03
2022-10-15T14:48:19.994Z,100652.53
2022-10-15T14:50:48.543Z,100652.56
2022-10-15T14:53:23.207Z,100661.94
2022-10-15T14:55:57.767Z,100657.19
2022-10-15T14:58:31.334Z,100658.59
2022-10-15T15:01:02.857Z,100658.47
2022-10-15T15:03:39.243Z,100649.94
2022-10-15T15:06:08.755Z,100654.41
2022-10-15T15:08:37.871Z,100659.06
2022-10-15T15:11:13.393Z,100661.50
2022-10-15T15:13:46.094Z,100654.28
2022-10-15T15:16:17.207Z,100662.59
2022-10-15T15:18:46.575Z,100652.94
2022-10-15T15:21:18.675Z,100659.09
2022-10-15T15:23:49.582Z,100664.66
2022-10-15T15:26:19.334Z,100654.41
2022-10-15T15:28:50.777Z,100646.34
2022-10-15T15:31:20.230Z,100640.28
2022-10-15T15:33:48.853Z,100643.56
2022-10-15T15:36:20.980Z,100655.44
2022-10-15T15:38:58.545Z,100656.84
2022-10-15T15:41:27.225Z,100658.41
2022-10-15T15:44:00.328Z,100658.84
2022-10-15T15:46:28.794Z,100656.41
2022-10-15T15:48:59.022Z,100663.84
2022-10-15T15:51:32.503Z,100650.56
2022-10-15T15:54:06.217Z,100667.00
2022-10-15T15:56:36.570Z,100666.47
2022-10-15T15:59:07.626Z,100682.41
2022-10-15T16:01:36.789Z,100674.13
2022-10-15T16:04:09.022Z,100680.69
2022-10-15T16:06:39.257Z,100688.91
2022-10-15T16:09:08.371Z,100694.91
2022-10-15T16:11:40.158Z,100704.31
2022-10-15T16:14:10.220Z,100705.09
2022-10-15T16:16:39.103Z,100712.50
2022-10-15T16:19:08.606Z,100705.81
2022-10-15T16:21:38.829Z,100714.91
2022-10-15T16:24:08.225Z,100721.81
2022-10-15T16:26:36.706Z,100735.69
2022-10-15T16:29:06.531Z,100719.56
2022-10-15T16:31:37.563Z,100726.56
2022-10-15T16:34:06.689Z,100728.88
2022-10-15T16:36:36.474Z,100733.59
2022-10-15T16:39:06.005Z,100738.03
2022-10-15T16:41:36.184Z,100733.16
2022-10-15T16:44:04.896Z,100740.00
2022-10-15T16:46:38.957Z,100734.72
2022-10-15T16:49:07.843Z,100745.31
2022-10-15T16:51:38.592Z,100755.31
2022-10-15T16:54:16.832Z,100747.38
2022-10-15T16:56:53.919Z,100762.06
2022-10-15T16:59:22.778Z,100763.69
2022-10-15T17:01:52.901Z,100762.47
2022-10-15T17:04:21.351Z,100776.47
2022-10-15T17:06:50.719Z,100770.66
2022-10-15T17:09:20.830Z,100777.09
2022-10-15T17:11:50.612Z,100768.88
2022-10-15T17:14:20.788Z,100787.03
2022-10-15T17:16:53.206Z,100787.00
2022-10-15T17:19:30.459Z,100786.59
2022-10-15T17:22:09.419Z,100790.72
2022-10-15T17:24:43.935Z,100794.28
2022-10-15T17:27:14.834Z,100809.28
2022-10-15T17:29:45.915Z,100810.88
2022-10-15T17:32:16.437Z,100810.88
2022-10-15T17:34:44.923Z,100830.44
2022-10-15T17:37:15.945Z,100819.19
2022-10-15T17:39:44.921Z,100819.31
2022-10-15T17:42:16.052Z,100833.19
2022-10-15T17:44:50.980Z,100837.81
2022-10-15T17:47:22.934Z,100829.75
2022-10-15T17:49:56.075Z,100825.97
2022-10-15T17:52:30.036Z,100828.50
2022-10-15T17:55:01.407Z,100831.41
2022-10-15T17:57:33.583Z,100847.53
2022-10-15T18:00:05.615Z,100856.31
2022-10-15T18:02:40.749Z,100868.59
2022-10-15T18:05:11.083Z,100872.19
2022-10-15T18:07:42.187Z,100857.97
2022-10-15T18:10:15.383Z,100862.41
2022-10-15T18:12:44.840Z,100862.63
2022-10-15T18:15:14.993Z,100881.25
2022-10-15T18:17:47.324Z,100867.91
2022-10-15T18:20:16.583Z,100873.06
2022-10-15T18:22:46.739Z,100882.38
2022-10-15T18:25:17.271Z,100892.66
2022-10-15T18:27:47.442Z,100892.78
2022-10-15T18:30:17.360Z,100902.00
2022-10-15T18:32:49.274Z,100898.91
2022-10-15T18:35:20.850Z,100884.03
2022-10-15T18:37:57.658Z,100884.28
2022-10-15T18:40:27.993Z,100891.88
2022-10-15T18:42:57.713Z,100880.81
2022-10-15T18:45:27.510Z,100885.16
2022-10-15T18:47:59.666Z,100872.00
2022-10-15T18:50:30.879Z,100879.75
2022-10-15T18:53:03.985Z,100887.13
2022-10-15T18:55:33.977Z,100888.06
2022-10-15T18:58:06.855Z,100888.72
2022-10-15T19:00:39.379Z,100884.03
2022-10-15T19:03:13.147Z,100891.16
2022-10-15T19:05:43.697Z,100886.06
2022-10-15T19:08:20.565Z,100887.94
2022-10-15T19:10:51.484Z,100891.00
2022-10-15T19:13:23.704Z,100890.16
2022-10-15T19:15:58.160Z,100876.78
2022-10-15T19:18:37.992Z,100877.16
2022-10-15T19:23:57.606Z,100891.88
2022-10-15T19:26:27.212Z,100886.25
2022-10-15T19:29:01.799Z,100886.25
2022-10-15T19:31:35.308Z,100896.50
2022-10-15T19:34:08.484Z,100886.84
2022-10-15T19:36:42.386Z,100885.38
2022-10-15T19:39:19.153Z,100904.88
2022-10-15T19:41:50.516Z,100902.59
2022-10-15T19:44:26.477Z,100903.41
2022-10-15T19:46:59.599Z,100896.31
2022-10-15T19:49:31.418Z,100899.50
2022-10-15T19:52:01.470Z,100907.53
2022-10-15T19:54:30.874Z,100917.13
2022-10-15T19:57:01.410Z,100924.66
2022-10-15T19:59:31.286Z,100922.56
2022-10-15T20:02:01.563Z,100921.41
2022-10-15T20:04:32.199Z,100922.19
2022-10-15T20:07:01.496Z,100926.41
2022-10-15T20:09:30.945Z,100911.50
2022-10-15T20:12:01.508Z,100924.41
2022-10-15T20:14:32.620Z,100930.28
2022-10-15T20:17:02.111Z,100923.44
2022-10-15T20:19:32.671Z,100919.81
2022-10-15T20:22:01.089Z,100915.00
2022-10-15T20:24:29.939Z,100919.88
2022-10-15T20:27:00.815Z,100918.13
2022-10-15T20:29:30.015Z,100915.19
2022-10-15T20:32:10.658Z,100907.22
2022-10-15T20:34:50.790Z,100913.34
2022-10-15T20:37:19.547Z,100927.69
2022-10-15T20:39:52.942Z,100917.56
2022-10-15T20:42:22.151Z,100940.09
2022-10-15T20:44:53.176Z,100940.94
2022-10-15T20:47:22.301Z,100947.06
2022-10-15T20:49:55.014Z,100944.25
2022-10-15T20:52:24.673Z,100937.66
2022-10-15T20:54:55.358Z,100951.16
2022-10-15T20:57:27.554Z,100955.44
2022-10-15T20:59:56.340Z,100956.81
2022-10-15T21:02:25.982Z,100956.19
2022-10-15T21:04:58.428Z,100965.94
2022-10-15T21:07:27.614Z,100974.00
2022-10-15T21:09:56.086Z,100965.91
2022-10-15T21:12:25.713Z,100971.75
2022-10-15T21:14:56.699Z,100979.97
2022-10-15T21:17:27.367Z,100977.97
2022-10-15T21:19:59.062Z,100977.28
2022-10-15T21:22:27.980Z,100983.84
2022-10-15T21:24:58.694Z,100982.81
2022-10-15T21:27:27.834Z,100987.84
2022-10-15T21:29:57.721Z,100996.38
2022-10-15T21:32:27.343Z,100994.41
2022-10-15T21:34:57.680Z,100983.84
2022-10-15T21:37:26.791Z,100985.84
2022-10-15T21:39:55.609Z,100986.78
2022-10-15T21:42:25.854Z,100986.06
2022-10-15T21:45:07.309Z,100988.41
2022-10-15T21:47:40.014Z,100993.72
2022-10-15T21:50:12.409Z,101002.00
2022-10-15T21:52:40.976Z,101005.13
2022-10-15T21:55:11.136Z,101011.00
2022-10-15T21:57:40.293Z,101015.81
2022-10-15T22:00:18.063Z,101021.03
2022-10-15T22:02:53.732Z,101018.84
2022-10-15T22:05:24.000Z,101020.19
2022-10-15T22:07:53.294Z,101026.84
2022-10-15T22:10:23.420Z,101014.72
2022-10-15T22:12:54.114Z,101017.72
2022-10-15T22:15:22.757Z,101018.69
2022-10-15T22:17:51.773Z,101031.72
2022-10-15T22:20:23.708Z,101030.84
2022-10-15T22:22:54.987Z,101031.72
2022-10-15T22:25:23.944Z,101021.22
2022-10-15T22:27:53.176Z,101021.16
2022-10-15T22:30:23.262Z,101025.00
2022-10-15T22:32:51.857Z,101026.56
2022-10-15T22:35:21.570Z,101030.03
2022-10-15T22:37:51.796Z,101026.44
2022-10-15T22:40:23.250Z,101040.28
2022-10-15T22:42:52.168Z,101042.28
2022-10-15T22:45:20.933Z,101035.59
2022-10-15T22:47:49.802Z,101044.94
2022-10-15T22:50:19.198Z,101044.03
2022-10-15T22:52:49.137Z,101039.44
2022-10-15T22:55:18.213Z,101038.63
2022-10-15T22:57:52.426Z,101044.91
2022-10-15T23:00:23.658Z,101039.41
2022-10-15T23:02:52.601Z,101043.28
2022-10-15T23:05:21.139Z,101035.50
2022-10-15T23:07:50.043Z,101032.47
2022-10-15T23:10:19.691Z,101029.56
2022-10-15T23:12:49.701Z,101026.50
2022-10-15T23:15:23.591Z,101021.69
2022-10-15T23:17:54.873Z,101031.72
2022-10-15T23:20:24.271Z,101017.91
2022-10-15T23:22:52.933Z,101032.75
2022-10-15T23:25:21.384Z,101035.19
2022-10-15T23:27:52.217Z,101033.38
2022-10-15T23:30:25.096Z,101027.13
2022-10-15T23:32:56.866Z,101026.97
2022-10-15T23:35:26.296Z,101024.25
2022-10-15T23:37:55.558Z,101026.00
2022-10-15T23:40:25.374Z,101019.13
2022-10-15T23:42:56.114Z,101023.06
2022-10-15T23:45:24.586Z,101017.38
2022-10-15T23:47:59.131Z,101022.34
2022-10-15T23:50:34.474Z,101017.56
2022-10-15T23:53:03.632Z,101025.28
2022-10-15T23:55:33.620Z,101026.47
2022-10-15T23:58:03.874Z,101036.06
